createdAt,value
2018-11-12T00:00:37.122Z,995.59
2018-11-12T00:01:43.924Z,995.70
2018-11-12T00:02:49.711Z,995.73
2018-11-12T00:03:56.501Z,995.73
2018-11-12T00:05:02.304Z,995.74
2018-11-12T00:06:08.607Z,995.67
2018-11-12T00:07:15.408Z,995.71
2018-11-12T00:08:21.191Z,995.74
2018-11-12T00:09:27.600Z,995.70
2018-11-12T00:10:34.279Z,995.75
2018-11-12T00:11:40.075Z,995.75
2018-11-12T00:12:46.363Z,995.74
2018-11-12T00:13:52.660Z,995.79
2018-11-12T00:14:58.934Z,995.81
2018-11-12T00:16:05.237Z,995.84
2018-11-12T00:17:11.523Z,995.79
2018-11-12T00:18:17.807Z,995.84
2018-11-12T00:19:24.095Z,995.81
2018-11-12T00:20:30.907Z,995.88
2018-11-12T00:21:36.670Z,995.88
2018-11-12T00:22:42.950Z,995.91
2018-11-12T00:23:49.251Z,995.90
2018-11-12T00:24:55.534Z,995.89
2018-11-12T00:26:02.328Z,995.86
2018-11-12T00:27:08.115Z,995.83
2018-11-12T00:28:14.890Z,995.87
2018-11-12T00:29:21.181Z,995.88
2018-11-12T00:30:27.583Z,995.85
2018-11-12T00:31:33.754Z,995.82
2018-11-12T00:32:40.041Z,995.80
2018-11-12T00:33:46.324Z,995.81
2018-11-12T00:34:52.614Z,995.80
2018-11-12T00:35:58.405Z,995.83
2018-11-12T00:37:05.191Z,995.85
2018-11-12T00:38:11.575Z,995.86
2018-11-12T00:39:17.759Z,995.80
2018-11-12T00:40:23.565Z,995.80
2018-11-12T00:41:30.337Z,995.85
2018-11-12T00:42:36.124Z,995.89
2018-11-12T00:43:42.412Z,995.85
2018-11-12T00:44:48.690Z,995.86
2018-11-12T00:45:54.994Z,995.83
2018-11-12T00:47:01.289Z,995.83
2018-11-12T00:48:07.546Z,995.88
2018-11-12T00:49:13.832Z,995.84
2018-11-12T00:50:20.114Z,995.84
2018-11-12T00:51:26.425Z,995.79
2018-11-12T00:52:33.169Z,995.80
2018-11-12T00:53:38.966Z,995.80
2018-11-12T00:54:45.748Z,995.82
2018-11-12T00:55:52.025Z,995.86
2018-11-12T00:56:57.836Z,995.83
2018-11-12T00:58:04.094Z,995.83
2018-11-12T00:59:10.888Z,995.86
2018-11-12T01:00:17.149Z,995.84
2018-11-12T01:01:22.951Z,995.83
2018-11-12T01:02:29.231Z,995.80
2018-11-12T01:03:35.997Z,995.83
2018-11-12T01:04:41.777Z,995.89
2018-11-12T01:05:48.536Z,995.89
2018-11-12T01:06:54.332Z,995.93
2018-11-12T01:08:00.600Z,995.95
2018-11-12T01:09:07.381Z,995.95
2018-11-12T01:10:13.678Z,996.02
2018-11-12T01:11:19.433Z,995.98
2018-11-12T01:12:26.214Z,996.04
2018-11-12T01:13:31.965Z,996.04
2018-11-12T01:14:38.239Z,996.02
2018-11-12T01:15:44.994Z,996.03
2018-11-12T01:16:50.769Z,996.01
2018-11-12T01:17:57.038Z,995.95
2018-11-12T01:19:03.297Z,995.99
2018-11-12T01:20:09.562Z,995.94
2018-11-12T01:21:15.825Z,995.89
2018-11-12T01:22:22.092Z,995.94
2018-11-12T01:23:28.348Z,995.97
2018-11-12T01:24:36.094Z,996.01
2018-11-12T01:25:40.875Z,996.00
2018-11-12T01:26:47.150Z,996.03
2018-11-12T01:27:53.900Z,996.03
2018-11-12T01:28:59.639Z,996.01
2018-11-12T01:30:06.394Z,995.99
2018-11-12T01:31:12.157Z,995.95
2018-11-12T01:32:18.417Z,995.95
2018-11-12T01:33:24.682Z,995.98
2018-11-12T01:34:30.936Z,996.05
2018-11-12T01:35:37.181Z,996.00
2018-11-12T01:36:43.953Z,996.02
2018-11-12T01:37:49.703Z,996.08
2018-11-12T01:38:56.443Z,996.07
2018-11-12T01:40:02.690Z,996.07
2018-11-12T01:41:08.938Z,996.12
2018-11-12T01:42:14.764Z,996.09
2018-11-12T01:43:20.959Z,996.10
2018-11-12T01:44:27.705Z,996.12
2018-11-12T01:45:34.945Z,996.14
2018-11-12T01:46:39.716Z,996.11
2018-11-12T01:47:45.965Z,996.14
2018-11-12T01:48:52.697Z,996.10
2018-11-12T01:49:58.952Z,996.10
2018-11-12T01:51:04.721Z,996.07
2018-11-12T01:52:11.576Z,996.02
2018-11-12T01:53:17.215Z,995.98
2018-11-12T01:54:23.577Z,995.97
2018-11-12T01:55:29.714Z,995.95
2018-11-12T01:56:35.965Z,995.95
2018-11-12T01:57:42.210Z,995.83
2018-11-12T01:58:48.967Z,995.88
2018-11-12T01:59:55.714Z,995.87
2018-11-12T02:01:01.968Z,995.85
2018-11-12T02:02:07.733Z,995.89
2018-11-12T02:03:14.974Z,995.93
2018-11-12T02:04:20.234Z,995.96
2018-11-12T02:05:25.990Z,995.96
2018-11-12T02:06:32.237Z,995.98
2018-11-12T02:07:38.501Z,995.99
2018-11-12T02:08:44.865Z,996.01
2018-11-12T02:09:51.493Z,996.03
2018-11-12T02:10:57.255Z,996.00
2018-11-12T02:12:04.015Z,995.99
2018-11-12T02:13:09.766Z,995.90
2018-11-12T02:14:16.583Z,995.89
2018-11-12T02:15:22.288Z,995.85
2018-11-12T02:16:29.052Z,995.88
2018-11-12T02:17:35.290Z,995.84
2018-11-12T02:18:41.546Z,995.83
2018-11-12T02:19:47.308Z,995.80
2018-11-12T02:20:54.054Z,995.82
2018-11-12T02:22:00.361Z,995.83
2018-11-12T02:23:06.067Z,995.82
2018-11-12T02:24:12.818Z,995.82
2018-11-12T02:25:18.575Z,995.82
2018-11-12T02:26:25.335Z,995.79
2018-11-12T02:27:31.585Z,995.76
2018-11-12T02:28:37.349Z,995.72
2018-11-12T02:29:43.616Z,995.74
2018-11-12T02:30:49.863Z,995.81
2018-11-12T02:31:56.647Z,995.83
2018-11-12T02:33:02.926Z,995.84
2018-11-12T02:34:08.642Z,995.87
2018-11-12T02:35:15.374Z,995.88
2018-11-12T02:36:21.637Z,995.93
2018-11-12T02:37:27.902Z,995.94
2018-11-12T02:38:33.669Z,995.93
2018-11-12T02:39:39.932Z,995.95
2018-11-12T02:40:46.771Z,995.95
2018-11-12T02:41:52.439Z,995.96
2018-11-12T02:42:59.195Z,995.95
2018-11-12T02:44:04.951Z,995.98
2018-11-12T02:45:11.210Z,995.93
2018-11-12T02:46:17.961Z,995.91
2018-11-12T02:47:24.213Z,995.88
2018-11-12T02:48:29.963Z,995.86
2018-11-12T02:49:36.223Z,995.85
2018-11-12T02:50:42.466Z,995.82
2018-11-12T02:51:48.720Z,995.79
2018-11-12T02:52:54.990Z,995.79
2018-11-12T02:54:01.230Z,995.85
2018-11-12T02:55:07.984Z,995.83
2018-11-12T02:56:14.273Z,995.80
2018-11-12T02:57:21.640Z,995.74
2018-11-12T02:58:26.747Z,995.71
2018-11-12T02:59:33.007Z,995.74
2018-11-12T03:00:38.748Z,995.72
2018-11-12T03:01:45.006Z,995.68
2018-11-12T03:02:51.762Z,995.66
2018-11-12T03:03:57.509Z,995.67
2018-11-12T03:05:04.258Z,995.72
2018-11-12T03:06:10.008Z,995.67
2018-11-12T03:07:16.493Z,995.68
2018-11-12T03:08:22.497Z,995.69
2018-11-12T03:09:29.252Z,995.65
2018-11-12T03:10:34.989Z,995.69
2018-11-12T03:11:41.741Z,995.75
2018-11-12T03:12:47.986Z,995.76
2018-11-12T03:13:54.228Z,995.75
2018-11-12T03:14:59.999Z,995.67
2018-11-12T03:16:06.233Z,995.71
2018-11-12T03:17:12.972Z,995.68
2018-11-12T03:18:19.219Z,995.67
2018-11-12T03:19:25.972Z,995.68
2018-11-12T03:20:31.223Z,995.70
2018-11-12T03:21:37.967Z,995.68
2018-11-12T03:22:44.223Z,995.67
2018-11-12T03:23:49.969Z,995.68
2018-11-12T03:24:56.231Z,995.67
2018-11-12T03:26:02.473Z,995.64
2018-11-12T03:27:08.729Z,995.61
2018-11-12T03:28:15.564Z,995.65
2018-11-12T03:29:21.712Z,995.64
2018-11-12T03:30:27.964Z,995.68
2018-11-12T03:31:33.720Z,995.61
2018-11-12T03:32:40.466Z,995.68
2018-11-12T03:33:46.708Z,995.61
2018-11-12T03:34:52.963Z,995.68
2018-11-12T03:35:59.215Z,995.66
2018-11-12T03:37:04.959Z,995.59
2018-11-12T03:38:11.697Z,995.65
2018-11-12T03:39:17.439Z,995.68
2018-11-12T03:40:24.189Z,995.59
2018-11-12T03:41:29.933Z,995.63
2018-11-12T03:42:36.668Z,995.61
2018-11-12T03:43:42.406Z,995.64
2018-11-12T03:44:49.134Z,995.59
2018-11-12T03:45:55.388Z,995.64
2018-11-12T03:47:01.618Z,995.61
2018-11-12T03:48:07.360Z,995.59
2018-11-12T03:49:14.094Z,995.60
2018-11-12T03:50:19.832Z,995.64
2018-11-12T03:51:26.065Z,995.64
2018-11-12T03:52:32.794Z,995.65
2018-11-12T03:53:38.549Z,995.64
2018-11-12T03:54:44.774Z,995.69
2018-11-12T03:55:51.582Z,995.69
2018-11-12T03:56:57.748Z,995.66
2018-11-12T03:58:03.577Z,995.69
2018-11-12T03:59:10.211Z,995.67
2018-11-12T04:00:16.524Z,995.61
2018-11-12T04:01:22.203Z,995.64
2018-11-12T04:02:28.442Z,995.69
2018-11-12T04:03:34.687Z,995.64
2018-11-12T04:04:40.926Z,995.68
2018-11-12T04:05:47.657Z,995.66
2018-11-12T04:06:53.409Z,995.69
2018-11-12T04:08:00.150Z,995.67
2018-11-12T04:09:05.920Z,995.68
2018-11-12T04:10:12.638Z,995.69
2018-11-12T04:11:18.388Z,995.68
2018-11-12T04:12:25.122Z,995.69
2018-11-12T04:13:31.380Z,995.70
2018-11-12T04:14:37.117Z,995.69
2018-11-12T04:15:43.845Z,995.73
2018-11-12T04:16:50.092Z,995.71
2018-11-12T04:17:56.338Z,995.73
2018-11-12T04:19:02.079Z,995.80
2018-11-12T04:20:08.828Z,995.78
2018-11-12T04:21:14.587Z,995.80
2018-11-12T04:22:21.320Z,995.80
2018-11-12T04:23:28.554Z,995.85
2018-11-12T04:24:33.808Z,995.82
2018-11-12T04:25:39.598Z,995.79
2018-11-12T04:26:46.304Z,995.74
2018-11-12T04:27:52.070Z,995.76
2018-11-12T04:28:58.316Z,995.82
2018-11-12T04:30:05.043Z,995.77
2018-11-12T04:31:10.810Z,995.82
2018-11-12T04:32:17.060Z,995.88
2018-11-12T04:33:23.306Z,995.88
2018-11-12T04:34:30.046Z,995.85
2018-11-12T04:35:35.804Z,995.80
2018-11-12T04:36:42.078Z,995.83
2018-11-12T04:37:48.323Z,995.79
2018-11-12T04:38:55.055Z,995.80
2018-11-12T04:40:01.308Z,995.77
2018-11-12T04:41:07.082Z,995.77
2018-11-12T04:42:13.827Z,995.77
2018-11-12T04:43:19.590Z,995.74
2018-11-12T04:44:25.832Z,995.72
2018-11-12T04:45:32.109Z,995.72
2018-11-12T04:46:38.360Z,995.71
2018-11-12T04:47:44.605Z,995.68
2018-11-12T04:48:51.351Z,995.67
2018-11-12T04:49:57.608Z,995.71
2018-11-12T04:51:03.875Z,995.71
2018-11-12T04:52:10.136Z,995.75
2018-11-12T04:53:15.890Z,995.70
2018-11-12T04:54:22.155Z,995.70
2018-11-12T04:55:28.953Z,995.68
2018-11-12T04:56:34.653Z,995.69
2018-11-12T04:57:40.920Z,995.70
2018-11-12T04:58:47.155Z,995.70
2018-11-12T04:59:53.926Z,995.69
2018-11-12T05:01:00.176Z,995.68
2018-11-12T05:02:06.351Z,995.68
2018-11-12T05:03:12.198Z,995.61
2018-11-12T05:04:18.950Z,995.70
2018-11-12T05:05:25.215Z,995.67
2018-11-12T05:06:30.977Z,995.66
2018-11-12T05:07:37.904Z,995.67
2018-11-12T05:08:43.593Z,995.68
2018-11-12T05:09:50.252Z,995.71
2018-11-12T05:10:56.022Z,995.72
2018-11-12T05:12:02.781Z,995.68
2018-11-12T05:13:08.547Z,995.64
2018-11-12T05:14:14.811Z,995.66
2018-11-12T05:15:21.566Z,995.63
2018-11-12T05:16:27.359Z,995.64
2018-11-12T05:17:34.420Z,995.59
2018-11-12T05:18:40.368Z,995.55
2018-11-12T05:19:46.152Z,995.54
2018-11-12T05:20:52.410Z,995.49
2018-11-12T05:21:59.183Z,995.46
2018-11-12T05:23:04.968Z,995.41
2018-11-12T05:24:11.228Z,995.38
2018-11-12T05:25:17.993Z,995.35
2018-11-12T05:26:23.762Z,995.35
2018-11-12T05:27:30.533Z,995.32
2018-11-12T05:28:36.320Z,995.30
2018-11-12T05:29:43.077Z,995.31
2018-11-12T05:30:49.343Z,995.34
2018-11-12T05:31:55.120Z,995.28
2018-11-12T05:33:01.876Z,995.30
2018-11-12T05:34:08.153Z,995.38
2018-11-12T05:35:13.916Z,995.39
2018-11-12T05:36:20.192Z,995.38
2018-11-12T05:37:26.945Z,995.35
2018-11-12T05:38:33.223Z,995.38
2018-11-12T05:39:38.986Z,995.39
2018-11-12T05:40:45.764Z,995.39
2018-11-12T05:41:52.015Z,995.41
2018-11-12T05:42:58.273Z,995.42
2018-11-12T05:44:04.040Z,995.43
2018-11-12T05:45:10.782Z,995.40
2018-11-12T05:46:17.049Z,995.43
2018-11-12T05:47:22.826Z,995.48
2018-11-12T05:48:29.085Z,995.48
2018-11-12T05:49:35.827Z,995.45
2018-11-12T05:50:42.102Z,995.48
2018-11-12T05:51:48.355Z,995.48
2018-11-12T05:52:54.621Z,995.51
2018-11-12T05:54:00.875Z,995.50
2018-11-12T05:55:06.635Z,995.51
2018-11-12T05:56:12.901Z,995.57
2018-11-12T05:57:19.173Z,995.55
2018-11-12T05:58:25.924Z,995.55
2018-11-12T05:59:32.174Z,995.57
2018-11-12T06:00:37.950Z,995.56
2018-11-12T06:01:44.201Z,995.53
2018-11-12T06:02:50.466Z,995.46
2018-11-12T06:03:57.231Z,995.50
2018-11-12T06:05:03.657Z,995.53
2018-11-12T06:06:09.251Z,995.54
2018-11-12T06:07:15.523Z,995.54
2018-11-12T06:08:22.283Z,995.54
2018-11-12T06:09:28.538Z,995.51
2018-11-12T06:10:34.302Z,995.45
2018-11-12T06:11:41.070Z,995.51
2018-11-12T06:12:47.320Z,995.51
2018-11-12T06:13:53.107Z,995.54
2018-11-12T06:14:59.376Z,995.55
2018-11-12T06:16:05.633Z,995.62
2018-11-12T06:17:12.908Z,995.66
2018-11-12T06:18:18.668Z,995.76
2018-11-12T06:19:24.930Z,995.78
2018-11-12T06:20:30.691Z,995.70
2018-11-12T06:21:36.962Z,995.63
2018-11-12T06:22:43.795Z,995.69
2018-11-12T06:23:49.998Z,995.73
2018-11-12T06:24:55.777Z,995.72
2018-11-12T06:26:02.541Z,995.70
2018-11-12T06:27:08.808Z,995.70
2018-11-12T06:28:15.082Z,995.71
2018-11-12T06:29:20.846Z,995.71
2018-11-12T06:30:27.613Z,995.73
2018-11-12T06:31:33.891Z,995.73
2018-11-12T06:32:40.166Z,995.71
2018-11-12T06:33:45.947Z,995.71
2018-11-12T06:34:52.212Z,995.74
2018-11-12T06:35:58.497Z,995.74
2018-11-12T06:37:05.268Z,995.77
2018-11-12T06:38:11.569Z,995.70
2018-11-12T06:39:17.318Z,995.74
2018-11-12T06:40:23.594Z,995.73
2018-11-12T06:41:29.877Z,995.74
2018-11-12T06:42:37.185Z,995.66
2018-11-12T06:43:42.947Z,995.68
2018-11-12T06:44:49.186Z,995.74
2018-11-12T06:45:54.973Z,995.81
2018-11-12T06:47:01.754Z,995.87
2018-11-12T06:48:08.027Z,995.88
2018-11-12T06:49:14.307Z,995.90
2018-11-12T06:50:20.072Z,995.89
2018-11-12T06:51:26.353Z,995.87
2018-11-12T06:52:32.630Z,995.89
2018-11-12T06:53:38.913Z,995.85
2018-11-12T06:54:45.674Z,995.89
2018-11-12T06:55:51.961Z,995.90
2018-11-12T06:56:57.747Z,995.94
2018-11-12T06:58:04.027Z,995.94
2018-11-12T06:59:10.302Z,995.97
2018-11-12T07:00:16.578Z,995.91
2018-11-12T07:01:22.852Z,995.93
2018-11-12T07:02:29.637Z,995.91
2018-11-12T07:03:35.410Z,995.93
2018-11-12T07:04:42.208Z,995.91
2018-11-12T07:05:48.500Z,995.94
2018-11-12T07:06:54.841Z,995.95
2018-11-12T07:08:00.551Z,995.97
2018-11-12T07:09:06.844Z,995.97
2018-11-12T07:10:13.123Z,996.01
2018-11-12T07:11:19.914Z,995.98
2018-11-12T07:12:25.708Z,996.01
2018-11-12T07:13:32.495Z,996.05
2018-11-12T07:14:38.284Z,996.03
2018-11-12T07:15:44.573Z,996.00
2018-11-12T07:16:50.853Z,995.95
2018-11-12T07:17:57.639Z,996.02
2018-11-12T07:19:03.463Z,996.03
2018-11-12T07:20:09.729Z,996.08
2018-11-12T07:21:16.534Z,996.07
2018-11-12T07:22:22.323Z,996.07
2018-11-12T07:23:28.616Z,996.08
2018-11-12T07:24:35.414Z,996.15
2018-11-12T07:25:41.702Z,996.07
2018-11-12T07:26:48.013Z,996.12
2018-11-12T07:27:53.817Z,996.10
2018-11-12T07:29:00.612Z,996.10
2018-11-12T07:30:06.411Z,996.06
2018-11-12T07:31:12.729Z,996.12
2018-11-12T07:32:19.033Z,996.07
2018-11-12T07:33:25.321Z,996.13
2018-11-12T07:34:31.677Z,996.09
2018-11-12T07:35:38.431Z,996.11
2018-11-12T07:36:44.237Z,996.12
2018-11-12T07:37:50.552Z,996.06
2018-11-12T07:38:56.853Z,996.03
2018-11-12T07:40:03.662Z,996.10
2018-11-12T07:41:09.973Z,996.16
2018-11-12T07:42:16.276Z,996.12
2018-11-12T07:43:22.098Z,996.13
2018-11-12T07:44:28.423Z,996.14
2018-11-12T07:45:35.220Z,996.15
2018-11-12T07:46:41.549Z,996.13
2018-11-12T07:47:47.856Z,996.06
2018-11-12T07:48:54.288Z,996.11
2018-11-12T07:50:00.012Z,996.09
2018-11-12T07:51:07.827Z,996.07
2018-11-12T07:52:12.648Z,996.09
2018-11-12T07:53:18.975Z,996.08
2018-11-12T07:54:25.815Z,996.10
2018-11-12T07:55:32.115Z,996.12
2018-11-12T07:56:37.935Z,996.10
2018-11-12T07:57:44.767Z,996.12
2018-11-12T07:58:51.084Z,996.14
2018-11-12T07:59:56.912Z,996.14
2018-11-12T08:01:03.233Z,996.13
2018-11-12T08:02:10.049Z,996.18
2018-11-12T08:03:15.951Z,996.18
2018-11-12T08:04:22.210Z,996.12
2018-11-12T08:05:29.035Z,996.09
2018-11-12T08:06:35.351Z,996.08
2018-11-12T08:07:41.176Z,996.05
2018-11-12T08:08:47.999Z,996.07
2018-11-12T08:09:54.319Z,996.08
2018-11-12T08:11:00.645Z,996.04
2018-11-12T08:12:06.606Z,996.04
2018-11-12T08:13:13.321Z,996.00
2018-11-12T08:14:19.646Z,995.96
2018-11-12T08:15:25.584Z,995.98
2018-11-12T08:16:32.314Z,995.96
2018-11-12T08:17:38.221Z,995.86
2018-11-12T08:18:44.493Z,995.83
2018-11-12T08:19:50.841Z,995.79
2018-11-12T08:20:57.665Z,995.77
2018-11-12T08:22:03.512Z,995.77
2018-11-12T08:23:10.364Z,995.78
2018-11-12T08:24:16.278Z,995.78
2018-11-12T08:25:22.568Z,995.82
2018-11-12T08:26:28.925Z,995.83
2018-11-12T08:27:35.825Z,995.83
2018-11-12T08:28:41.631Z,995.75
2018-11-12T08:29:48.560Z,995.87
2018-11-12T08:30:54.333Z,995.87
2018-11-12T08:32:00.698Z,995.81
2018-11-12T08:33:07.635Z,995.81
2018-11-12T08:34:13.426Z,995.81
2018-11-12T08:35:19.798Z,995.81
2018-11-12T08:36:26.723Z,995.77
2018-11-12T08:37:32.539Z,995.77
2018-11-12T08:38:38.909Z,995.79
2018-11-12T08:39:45.570Z,995.79
2018-11-12T08:40:52.292Z,995.86
2018-11-12T08:41:58.044Z,995.85
2018-11-12T08:43:04.930Z,995.81
2018-11-12T08:44:11.312Z,995.90
2018-11-12T08:45:17.205Z,995.90
2018-11-12T08:46:23.589Z,996.01
2018-11-12T08:47:30.475Z,995.89
2018-11-12T08:48:36.384Z,995.93
2018-11-12T08:49:42.856Z,996.00
2018-11-12T08:50:49.160Z,996.02
2018-11-12T08:51:56.047Z,996.02
2018-11-12T08:53:01.944Z,996.03
2018-11-12T08:54:08.339Z,996.03
2018-11-12T08:55:14.818Z,996.00
2018-11-12T08:56:21.295Z,995.95
2018-11-12T08:57:27.527Z,995.77
2018-11-12T08:58:33.927Z,995.74
2018-11-12T08:59:40.928Z,995.87
2018-11-12T09:00:47.310Z,995.88
2018-11-12T09:01:53.129Z,995.71
2018-11-12T09:02:59.530Z,995.71
2018-11-12T09:04:05.983Z,995.80
2018-11-12T09:05:12.358Z,995.92
2018-11-12T09:06:18.765Z,995.83
2018-11-12T09:07:25.313Z,995.75
2018-11-12T09:08:32.068Z,995.81
2018-11-12T09:09:38.504Z,995.84
2018-11-12T09:10:44.905Z,995.94
2018-11-12T09:11:50.817Z,995.94
2018-11-12T09:12:57.215Z,995.97
2018-11-12T09:14:04.131Z,996.06
2018-11-12T09:15:10.096Z,996.06
2018-11-12T09:16:16.458Z,996.02
2018-11-12T09:17:23.362Z,996.08
2018-11-12T09:18:29.269Z,996.10
2018-11-12T09:19:36.169Z,996.19
2018-11-12T09:20:42.085Z,996.19
2018-11-12T09:21:48.970Z,996.24
2018-11-12T09:22:54.887Z,996.20
2018-11-12T09:24:01.317Z,996.22
2018-11-12T09:25:07.704Z,996.21
2018-11-12T09:26:14.102Z,996.16
2018-11-12T09:27:20.510Z,996.08
2018-11-12T09:28:27.400Z,995.92
2018-11-12T09:29:33.878Z,995.96
2018-11-12T09:30:40.856Z,996.04
2018-11-12T09:31:46.152Z,996.03
2018-11-12T09:32:53.156Z,995.93
2018-11-12T09:33:59.010Z,995.85
2018-11-12T09:35:05.406Z,995.82
2018-11-12T09:36:11.822Z,995.83
2018-11-12T09:37:18.271Z,995.83
2018-11-12T09:38:24.694Z,995.76
2018-11-12T09:39:31.094Z,995.60
2018-11-12T09:40:37.541Z,995.63
2018-11-12T09:41:43.991Z,995.53
2018-11-12T09:42:50.942Z,995.54
2018-11-12T09:43:57.386Z,995.42
2018-11-12T09:45:03.352Z,995.25
2018-11-12T09:46:09.849Z,995.20
2018-11-12T09:47:16.267Z,994.95
2018-11-12T09:48:23.725Z,994.54
2018-11-12T09:49:29.675Z,994.65
2018-11-12T09:50:36.162Z,994.91
2018-11-12T09:51:42.123Z,995.04
2018-11-12T09:52:49.092Z,994.95
2018-11-12T09:53:55.658Z,994.93
2018-11-12T09:55:02.006Z,994.88
2018-11-12T09:56:07.991Z,995.07
2018-11-12T09:57:14.438Z,994.80
2018-11-12T09:58:20.888Z,995.07
2018-11-12T09:59:27.881Z,995.01
2018-11-12T10:00:34.552Z,994.82
2018-11-12T10:01:40.928Z,995.07
2018-11-12T10:02:47.686Z,995.04
2018-11-12T10:03:53.854Z,995.04
2018-11-12T10:05:01.175Z,995.03
2018-11-12T10:06:07.708Z,994.62
2018-11-12T10:07:14.236Z,994.77
2018-11-12T10:08:20.696Z,994.73
2018-11-12T10:09:29.142Z,994.59
2018-11-12T10:10:34.371Z,994.74
2018-11-12T10:11:41.165Z,994.87
2018-11-12T10:12:47.669Z,994.70
2018-11-12T10:13:55.253Z,994.85
2018-11-12T10:15:01.642Z,994.81
2018-11-12T10:16:07.738Z,995.02
2018-11-12T10:17:13.166Z,995.25
2018-11-12T10:18:17.225Z,995.29
2018-11-12T10:19:23.703Z,995.25
2018-11-12T10:20:30.641Z,995.07
2018-11-12T10:21:36.601Z,995.17
2018-11-12T10:22:43.036Z,995.25
2018-11-12T10:23:49.594Z,995.29
2018-11-12T10:24:57.444Z,995.24
2018-11-12T10:26:02.914Z,995.20
2018-11-12T10:27:09.406Z,995.07
2018-11-12T10:28:15.821Z,995.09
2018-11-12T10:29:23.277Z,995.13
2018-11-12T10:30:28.262Z,995.17
2018-11-12T10:31:35.246Z,994.99
2018-11-12T10:32:41.683Z,994.88
2018-11-12T10:33:47.677Z,994.93
2018-11-12T10:34:54.157Z,994.55
2018-11-12T10:36:00.629Z,994.53
2018-11-12T10:37:07.099Z,994.80
2018-11-12T10:38:13.872Z,994.83
2018-11-12T10:39:20.033Z,994.92
2018-11-12T10:40:26.506Z,995.09
2018-11-12T10:41:33.570Z,994.98
2018-11-12T10:42:39.988Z,994.82
2018-11-12T10:43:45.932Z,994.71
2018-11-12T10:44:52.901Z,994.72
2018-11-12T10:45:59.374Z,994.88
2018-11-12T10:47:05.837Z,995.03
2018-11-12T10:48:11.825Z,995.01
2018-11-12T10:49:18.759Z,995.13
2018-11-12T10:50:25.219Z,995.25
2018-11-12T10:51:31.198Z,995.87
2018-11-12T10:52:37.637Z,995.99
2018-11-12T10:53:50.044Z,995.86
2018-11-12T10:55:04.893Z,995.86
2018-11-12T10:55:58.142Z,996.05
2018-11-12T10:57:03.945Z,995.95
2018-11-12T10:58:09.877Z,995.96
2018-11-12T10:59:16.301Z,996.17
2018-11-12T11:00:23.226Z,996.06
2018-11-12T11:01:29.672Z,995.92
2018-11-12T11:02:36.115Z,995.86
2018-11-12T11:03:42.035Z,995.88
2018-11-12T11:04:48.475Z,995.86
2018-11-12T11:05:55.400Z,995.64
2018-11-12T11:07:01.846Z,995.63
2018-11-12T11:08:07.805Z,995.64
2018-11-12T11:09:14.206Z,995.61
2018-11-12T11:10:21.139Z,995.83
2018-11-12T11:11:27.083Z,995.80
2018-11-12T11:12:33.499Z,995.89
2018-11-12T11:13:39.971Z,995.90
2018-11-12T11:14:46.370Z,995.76
2018-11-12T11:15:52.795Z,995.80
2018-11-12T11:16:59.723Z,995.89
2018-11-12T11:18:05.651Z,996.01
2018-11-12T11:19:12.069Z,995.95
2018-11-12T11:20:18.484Z,995.92
2018-11-12T11:21:24.966Z,996.00
2018-11-12T11:22:31.335Z,995.98
2018-11-12T11:23:38.252Z,995.93
2018-11-12T11:24:44.190Z,996.01
2018-11-12T11:25:50.626Z,995.95
2018-11-12T11:26:57.612Z,995.86
2018-11-12T11:28:04.464Z,995.92
2018-11-12T11:29:09.900Z,995.87
2018-11-12T11:30:16.802Z,995.79
2018-11-12T11:31:22.756Z,995.70
2018-11-12T11:32:29.664Z,995.72
2018-11-12T11:33:35.595Z,995.73
2018-11-12T11:34:42.021Z,995.76
2018-11-12T11:35:48.450Z,995.84
2018-11-12T11:36:54.867Z,995.88
2018-11-12T11:38:01.290Z,995.89
2018-11-12T11:39:08.216Z,995.83
2018-11-12T11:40:14.690Z,996.01
2018-11-12T11:41:20.576Z,995.91
2018-11-12T11:42:27.569Z,996.00
2018-11-12T11:43:33.429Z,996.06
2018-11-12T11:44:39.857Z,996.07
2018-11-12T11:45:46.784Z,996.11
2018-11-12T11:46:52.728Z,996.15
2018-11-12T11:47:59.170Z,996.20
2018-11-12T11:49:05.581Z,996.15
2018-11-12T11:50:12.645Z,996.06
2018-11-12T11:51:18.916Z,996.04
2018-11-12T11:52:24.860Z,996.10
2018-11-12T11:53:31.290Z,996.10
2018-11-12T11:54:37.909Z,996.10
2018-11-12T11:55:44.151Z,996.18
2018-11-12T11:56:51.172Z,996.21
2018-11-12T11:57:57.000Z,996.20
2018-11-12T11:59:03.428Z,996.17
2018-11-12T12:00:10.350Z,996.11
2018-11-12T12:01:16.277Z,996.06
2018-11-12T12:02:22.723Z,996.06
2018-11-12T12:03:29.142Z,996.04
2018-11-12T12:04:35.571Z,996.02
2018-11-12T12:05:42.512Z,995.84
2018-11-12T12:06:48.940Z,995.76
2018-11-12T12:07:54.889Z,995.71
2018-11-12T12:09:01.337Z,995.74
2018-11-12T12:10:07.805Z,995.75
2018-11-12T12:11:14.734Z,995.68
2018-11-12T12:12:20.684Z,995.71
2018-11-12T12:13:27.623Z,995.75
2018-11-12T12:14:35.083Z,995.70
2018-11-12T12:15:40.544Z,995.71
2018-11-12T12:16:46.516Z,995.74
2018-11-12T12:17:52.961Z,995.67
2018-11-12T12:18:59.917Z,995.63
2018-11-12T12:20:05.866Z,995.68
2018-11-12T12:21:12.331Z,995.65
2018-11-12T12:22:18.791Z,995.62
2018-11-12T12:23:25.742Z,995.68
2018-11-12T12:24:31.752Z,995.60
2018-11-12T12:25:38.725Z,995.58
2018-11-12T12:26:45.101Z,995.72
2018-11-12T12:27:51.576Z,995.69
2018-11-12T12:28:58.008Z,995.69
2018-11-12T12:30:03.996Z,995.57
2018-11-12T12:31:10.960Z,995.60
2018-11-12T12:32:17.441Z,995.63
2018-11-12T12:33:23.409Z,995.60
2018-11-12T12:34:29.901Z,995.56
2018-11-12T12:35:36.404Z,995.57
2018-11-12T12:36:42.945Z,995.55
2018-11-12T12:37:49.890Z,995.53
2018-11-12T12:38:55.906Z,995.50
2018-11-12T12:40:02.433Z,995.42
2018-11-12T12:41:08.956Z,995.30
2018-11-12T12:42:15.498Z,995.17
2018-11-12T12:43:22.028Z,995.19
2018-11-12T12:44:28.672Z,995.14
2018-11-12T12:45:35.294Z,995.22
2018-11-12T12:46:41.739Z,995.44
2018-11-12T12:47:48.307Z,995.60
2018-11-12T12:48:54.904Z,995.66
2018-11-12T12:50:01.509Z,995.61
2018-11-12T12:51:08.130Z,995.60
2018-11-12T12:52:15.250Z,995.53
2018-11-12T12:53:21.396Z,995.61
2018-11-12T12:54:28.532Z,995.44
2018-11-12T12:55:34.770Z,995.49
2018-11-12T12:56:41.344Z,995.51
2018-11-12T12:57:48.012Z,995.41
2018-11-12T12:58:54.676Z,995.45
2018-11-12T13:00:01.527Z,995.14
2018-11-12T13:01:08.017Z,995.03
2018-11-12T13:02:14.739Z,994.90
2018-11-12T13:03:21.838Z,994.81
2018-11-12T13:04:27.965Z,994.84
2018-11-12T13:05:34.595Z,995.02
2018-11-12T13:06:41.340Z,995.07
2018-11-12T13:07:47.829Z,995.23
2018-11-12T13:08:54.940Z,994.94
2018-11-12T13:10:01.568Z,995.08
2018-11-12T13:11:08.200Z,994.79
2018-11-12T13:12:14.853Z,994.71
2018-11-12T13:13:21.000Z,994.90
2018-11-12T13:14:27.708Z,995.02
2018-11-12T13:15:34.255Z,995.09
2018-11-12T13:16:40.890Z,995.22
2018-11-12T13:17:47.988Z,995.12
2018-11-12T13:18:54.124Z,995.23
2018-11-12T13:20:00.718Z,995.00
2018-11-12T13:21:07.360Z,994.95
2018-11-12T13:22:13.893Z,995.01
2018-11-12T13:23:20.510Z,994.92
2018-11-12T13:24:27.065Z,994.78
2018-11-12T13:25:33.648Z,994.88
2018-11-12T13:26:40.231Z,994.60
2018-11-12T13:27:46.843Z,994.75
2018-11-12T13:28:53.596Z,994.60
2018-11-12T13:30:00.620Z,994.62
2018-11-12T13:31:06.664Z,994.58
2018-11-12T13:32:13.775Z,994.43
2018-11-12T13:33:19.902Z,994.52
2018-11-12T13:34:26.523Z,994.56
2018-11-12T13:35:33.141Z,994.61
2018-11-12T13:36:39.762Z,994.71
2018-11-12T13:37:46.391Z,994.58
2018-11-12T13:38:53.064Z,994.62
2018-11-12T13:40:00.141Z,994.64
2018-11-12T13:41:06.280Z,994.84
2018-11-12T13:42:12.928Z,995.02
2018-11-12T13:43:19.566Z,994.95
2018-11-12T13:44:26.205Z,995.14
2018-11-12T13:45:33.340Z,995.28
2018-11-12T13:46:39.661Z,995.32
2018-11-12T13:47:46.115Z,995.30